createdAt,value
2017-11-29T00:01:05.454Z,20.80
2017-11-29T00:02:05.360Z,20.10
2017-11-29T00:03:58.610Z,21.30
2017-11-29T00:04:58.539Z,21.70
2017-11-29T00:06:51.807Z,22.50
2017-11-29T00:07:51.715Z,21.60
2017-11-29T00:09:44.968Z,22.70
2017-11-29T00:10:44.891Z,21.50
2017-11-29T00:12:38.164Z,22.50
2017-11-29T00:13:38.073Z,21.60
2017-11-29T00:15:31.344Z,21.90
2017-11-29T00:16:31.250Z,22.10
2017-11-29T00:18:24.541Z,22.10
2017-11-29T00:19:24.442Z,22.10
2017-11-29T00:21:17.731Z,22.20
2017-11-29T00:22:17.629Z,23.60
2017-11-29T00:24:10.911Z,23.50
2017-11-29T00:25:10.869Z,23.70
2017-11-29T00:27:04.092Z,23.70
2017-11-29T00:28:03.998Z,22.80
2017-11-29T00:29:57.251Z,22.10
2017-11-29T00:30:57.179Z,23.20
2017-11-29T00:32:50.447Z,23.10
2017-11-29T00:33:50.361Z,22.90
2017-11-29T00:35:43.651Z,22.60
2017-11-29T00:36:43.548Z,23.40
2017-11-29T00:38:36.896Z,23.30
2017-11-29T00:39:36.767Z,22.70
2017-11-29T00:41:30.096Z,24.50
2017-11-29T00:42:29.977Z,23.30
2017-11-29T00:44:23.324Z,24.00
2017-11-29T00:45:23.197Z,24.30
2017-11-29T00:47:16.486Z,25.30
2017-11-29T00:48:16.419Z,25.50
2017-11-29T00:50:09.197Z,27.20
2017-11-29T00:51:09.125Z,25.90
2017-11-29T00:53:01.904Z,24.80
2017-11-29T00:54:01.813Z,24.80
2017-11-29T00:55:55.061Z,26.90
2017-11-29T00:56:54.989Z,25.80
2017-11-29T00:58:48.260Z,25.60
2017-11-29T00:59:48.168Z,25.30
2017-11-29T01:01:41.433Z,27.10
2017-11-29T01:02:41.345Z,28.20
2017-11-29T01:04:34.590Z,26.90
2017-11-29T01:05:34.519Z,27.90
2017-11-29T01:07:27.787Z,27.80
2017-11-29T01:08:27.697Z,27.50
2017-11-29T01:10:20.947Z,27.70
2017-11-29T01:11:20.874Z,26.50
2017-11-29T01:13:14.144Z,26.80
2017-11-29T01:14:14.050Z,27.70
2017-11-29T01:16:07.302Z,28.40
2017-11-29T01:17:07.228Z,28.40
2017-11-29T01:19:00.487Z,29.20
2017-11-29T01:20:00.401Z,29.70
2017-11-29T01:21:53.665Z,29.30
2017-11-29T01:22:53.573Z,28.80
2017-11-29T01:24:46.823Z,29.00
2017-11-29T01:25:46.751Z,28.70
2017-11-29T01:27:40.026Z,28.20
2017-11-29T01:28:39.927Z,28.30
2017-11-29T01:30:33.187Z,29.10
2017-11-29T01:31:33.113Z,29.00
2017-11-29T01:33:26.395Z,30.50
2017-11-29T01:34:26.302Z,29.10
2017-11-29T01:36:19.552Z,28.60
2017-11-29T01:37:19.480Z,28.60
2017-11-29T01:39:12.749Z,29.30
2017-11-29T01:40:12.659Z,28.70
2017-11-29T01:42:05.927Z,29.00
2017-11-29T01:43:05.837Z,29.10
2017-11-29T01:44:59.093Z,29.60
2017-11-29T01:45:59.007Z,30.00
2017-11-29T01:47:52.279Z,30.00
2017-11-29T01:48:52.190Z,30.10
2017-11-29T01:50:45.445Z,29.10
2017-11-29T01:51:45.380Z,30.30
2017-11-29T01:53:38.637Z,29.90
2017-11-29T01:54:38.547Z,28.90
2017-11-29T01:56:31.801Z,30.00
2017-11-29T01:57:31.724Z,31.00
2017-11-29T01:59:24.986Z,30.90
2017-11-29T02:00:24.892Z,29.90
2017-11-29T02:02:18.160Z,29.00
2017-11-29T02:03:18.068Z,29.50
2017-11-29T02:05:11.377Z,27.50
2017-11-29T02:06:11.308Z,28.00
2017-11-29T02:08:04.571Z,27.20
2017-11-29T02:09:04.479Z,26.50
2017-11-29T02:10:57.730Z,26.60
2017-11-29T02:11:57.659Z,26.90
2017-11-29T02:13:50.927Z,27.90
2017-11-29T02:14:50.836Z,28.10
2017-11-29T02:16:44.089Z,26.70
2017-11-29T02:17:44.014Z,27.40
2017-11-29T02:19:37.274Z,26.90
2017-11-29T02:20:37.178Z,26.80
2017-11-29T02:22:30.449Z,27.10
2017-11-29T02:23:30.357Z,27.80
2017-11-29T02:25:23.608Z,27.20
2017-11-29T02:26:23.534Z,28.00
2017-11-29T02:28:16.801Z,28.40
2017-11-29T02:29:16.710Z,30.00
2017-11-29T02:31:09.957Z,31.00
2017-11-29T02:32:09.886Z,31.00
2017-11-29T02:34:03.159Z,31.10
2017-11-29T02:35:03.068Z,31.50
2017-11-29T02:36:56.325Z,30.70
2017-11-29T02:37:56.251Z,30.90
2017-11-29T02:39:49.522Z,31.00
2017-11-29T02:40:49.429Z,30.30
2017-11-29T02:42:42.700Z,30.40
2017-11-29T02:43:42.611Z,29.30
2017-11-29T02:45:35.859Z,30.70
2017-11-29T02:46:35.784Z,31.30
2017-11-29T02:48:29.057Z,31.70
2017-11-29T02:49:28.960Z,32.00
2017-11-29T02:51:22.211Z,34.70
2017-11-29T02:52:22.137Z,34.40
2017-11-29T02:54:15.407Z,36.50
2017-11-29T02:55:15.315Z,36.90
2017-11-29T02:57:08.576Z,36.40
2017-11-29T02:58:08.504Z,38.50
2017-11-29T03:00:01.772Z,37.60
2017-11-29T03:01:01.688Z,39.10
2017-11-29T03:02:54.948Z,38.60
2017-11-29T03:03:54.854Z,38.20
2017-11-29T03:05:48.109Z,37.90
2017-11-29T03:06:48.033Z,34.90
2017-11-29T03:08:41.394Z,34.70
2017-11-29T03:09:41.300Z,34.20
2017-11-29T03:11:34.550Z,32.10
2017-11-29T03:12:34.478Z,31.70
2017-11-29T03:14:27.751Z,31.40
2017-11-29T03:15:27.660Z,32.50
2017-11-29T03:17:20.907Z,30.90
2017-11-29T03:18:20.835Z,32.10
2017-11-29T03:20:14.095Z,32.90
2017-11-29T03:21:14.005Z,33.10
2017-11-29T03:23:07.261Z,34.70
2017-11-29T03:24:07.169Z,34.60
2017-11-29T03:26:00.407Z,37.10
2017-11-29T03:27:00.334Z,36.70
2017-11-29T03:28:53.605Z,38.90
2017-11-29T03:29:53.512Z,39.70
2017-11-29T03:31:46.756Z,38.40
2017-11-29T03:32:46.685Z,37.20
2017-11-29T03:34:39.945Z,36.50
2017-11-29T03:35:39.849Z,37.40
2017-11-29T03:37:33.099Z,37.70
2017-11-29T03:38:33.020Z,36.70
2017-11-29T03:40:26.294Z,37.20
2017-11-29T03:41:26.200Z,40.30
2017-11-29T03:43:19.461Z,35.30
2017-11-29T03:44:19.369Z,35.60
2017-11-29T03:46:12.611Z,33.90
2017-11-29T03:47:12.535Z,33.90
2017-11-29T03:49:05.793Z,31.30
2017-11-29T03:50:05.701Z,30.50
2017-11-29T03:51:58.941Z,31.50
2017-11-29T03:52:58.880Z,31.30
2017-11-29T03:54:52.136Z,31.10
2017-11-29T03:55:52.044Z,31.70
2017-11-29T03:57:45.377Z,30.80
2017-11-29T03:58:45.302Z,30.30
2017-11-29T04:00:38.570Z,34.40
2017-11-29T04:01:38.479Z,33.40
2017-11-29T04:03:31.748Z,34.10
2017-11-29T04:04:31.657Z,33.60
2017-11-29T04:06:24.907Z,33.90
2017-11-29T04:07:24.834Z,32.80
2017-11-29T04:09:18.100Z,35.10
2017-11-29T04:10:18.008Z,33.90
2017-11-29T04:12:11.259Z,34.60
2017-11-29T04:13:11.189Z,35.60
2017-11-29T04:15:04.452Z,33.60
2017-11-29T04:16:04.361Z,34.40
2017-11-29T04:17:57.611Z,36.00
2017-11-29T04:18:57.537Z,34.80
2017-11-29T04:20:50.808Z,34.70
2017-11-29T04:21:50.715Z,34.80
2017-11-29T04:23:43.983Z,33.80
2017-11-29T04:24:43.894Z,35.30
2017-11-29T04:26:37.144Z,35.20
2017-11-29T04:27:37.070Z,36.20
2017-11-29T04:29:30.331Z,35.40
2017-11-29T04:30:30.241Z,34.80
2017-11-29T04:32:23.482Z,34.90
2017-11-29T04:33:23.406Z,34.10
2017-11-29T04:35:16.681Z,34.20
2017-11-29T04:36:16.583Z,35.10
2017-11-29T04:38:09.855Z,36.30
2017-11-29T04:39:09.751Z,36.60
2017-11-29T04:41:03.023Z,36.30
2017-11-29T04:42:02.927Z,37.40
2017-11-29T04:43:56.195Z,36.10
2017-11-29T04:44:56.093Z,36.50
2017-11-29T04:46:49.334Z,38.30
2017-11-29T04:47:49.261Z,37.60
2017-11-29T04:49:42.521Z,39.80
2017-11-29T04:50:42.430Z,38.20
2017-11-29T04:52:35.681Z,38.20
2017-11-29T04:53:35.609Z,40.00
2017-11-29T04:55:28.879Z,40.10
2017-11-29T04:56:28.786Z,38.40
2017-11-29T04:58:22.036Z,40.50
2017-11-29T04:59:21.964Z,40.40
2017-11-29T05:01:15.232Z,39.20
2017-11-29T05:02:15.138Z,39.80
2017-11-29T05:04:08.405Z,39.50
2017-11-29T05:05:08.315Z,40.90
2017-11-29T05:07:01.582Z,40.30
2017-11-29T05:08:01.509Z,40.90
2017-11-29T05:09:54.767Z,39.50
2017-11-29T05:10:54.678Z,39.00
2017-11-29T05:12:47.924Z,42.10
2017-11-29T05:13:47.851Z,39.90
2017-11-29T05:15:41.120Z,39.70
2017-11-29T05:16:41.027Z,39.40
2017-11-29T05:18:34.279Z,36.70
2017-11-29T05:19:34.206Z,38.00
2017-11-29T05:21:27.466Z,38.80
2017-11-29T05:22:27.371Z,37.90
2017-11-29T05:24:20.631Z,37.20
2017-11-29T05:25:20.543Z,37.80
2017-11-29T05:27:13.788Z,38.20
2017-11-29T05:28:13.714Z,39.90
2017-11-29T05:30:06.998Z,40.10
2017-11-29T05:31:06.892Z,41.10
2017-11-29T05:33:00.141Z,39.20
2017-11-29T05:34:00.069Z,38.70
2017-11-29T05:35:53.390Z,41.50
2017-11-29T05:36:53.298Z,40.00
2017-11-29T05:38:46.557Z,36.20
2017-11-29T05:39:46.495Z,39.10
2017-11-29T05:41:39.758Z,40.70
2017-11-29T05:42:39.672Z,40.70
2017-11-29T05:44:32.935Z,37.70
2017-11-29T05:45:32.835Z,40.10
2017-11-29T05:47:26.090Z,40.60
2017-11-29T05:48:26.011Z,39.80
2017-11-29T05:50:19.281Z,40.50
2017-11-29T05:51:19.189Z,41.40
2017-11-29T05:53:13.429Z,40.50
2017-11-29T05:54:13.356Z,38.30
2017-11-29T05:56:06.623Z,38.90
2017-11-29T05:57:06.537Z,39.40
2017-11-29T05:58:59.773Z,36.80
2017-11-29T05:59:59.702Z,38.50
2017-11-29T06:01:52.969Z,37.10
2017-11-29T06:02:52.879Z,39.50
2017-11-29T06:04:46.161Z,38.70
2017-11-29T06:05:46.068Z,38.10
2017-11-29T06:07:39.369Z,38.30
2017-11-29T06:08:39.307Z,36.60
2017-11-29T06:10:32.567Z,38.40
2017-11-29T06:11:32.480Z,39.00
2017-11-29T06:13:25.721Z,38.70
2017-11-29T06:14:25.654Z,40.10
2017-11-29T06:16:18.925Z,38.30
2017-11-29T06:17:18.834Z,40.00
2017-11-29T06:19:12.076Z,35.70
2017-11-29T06:20:12.003Z,36.10
2017-11-29T06:22:05.271Z,38.90
2017-11-29T06:23:05.168Z,38.20
2017-11-29T06:24:58.438Z,37.30
2017-11-29T06:25:58.349Z,37.60
2017-11-29T06:27:51.598Z,36.80
2017-11-29T06:28:51.525Z,38.20
2017-11-29T06:30:44.800Z,37.50
2017-11-29T06:31:44.705Z,38.60
2017-11-29T06:33:37.954Z,37.90
2017-11-29T06:34:37.885Z,39.50
2017-11-29T06:36:31.156Z,39.70
2017-11-29T06:37:31.068Z,38.80
2017-11-29T06:39:24.302Z,38.50
2017-11-29T06:40:24.230Z,37.40
2017-11-29T06:42:17.499Z,36.50
2017-11-29T06:43:17.408Z,36.40
2017-11-29T06:45:11.665Z,35.20
2017-11-29T06:46:11.577Z,35.20
2017-11-29T06:48:04.810Z,36.00
2017-11-29T06:49:04.743Z,35.40
2017-11-29T06:50:58.104Z,37.10
2017-11-29T06:51:57.919Z,36.50
2017-11-29T06:53:51.175Z,37.10
2017-11-29T06:54:51.094Z,36.80
2017-11-29T06:56:44.367Z,37.30
2017-11-29T06:57:44.271Z,38.10
2017-11-29T06:59:37.517Z,36.30
2017-11-29T07:00:37.443Z,36.60
2017-11-29T07:02:30.708Z,39.30
2017-11-29T07:03:30.609Z,37.70
2017-11-29T07:05:23.880Z,37.50
2017-11-29T07:06:23.785Z,38.50
2017-11-29T07:08:17.059Z,36.80
2017-11-29T07:09:16.986Z,37.80
2017-11-29T07:11:10.257Z,38.00
2017-11-29T07:12:10.164Z,36.70
2017-11-29T07:14:03.422Z,37.20
2017-11-29T07:15:03.340Z,36.80
2017-11-29T07:16:56.610Z,38.40
2017-11-29T07:17:56.516Z,37.00
2017-11-29T07:19:49.758Z,36.30
2017-11-29T07:20:49.696Z,36.80
2017-11-29T07:22:42.957Z,36.70
2017-11-29T07:23:42.863Z,37.00
2017-11-29T07:25:36.131Z,35.20
2017-11-29T07:26:36.038Z,37.40
2017-11-29T07:28:29.376Z,37.90
2017-11-29T07:29:29.302Z,38.00
2017-11-29T07:31:22.568Z,37.00
2017-11-29T07:32:22.478Z,36.50
2017-11-29T07:34:15.727Z,36.40
2017-11-29T07:35:15.655Z,37.90
2017-11-29T07:37:08.913Z,36.60
2017-11-29T07:38:08.820Z,35.50
2017-11-29T07:40:02.089Z,35.70
2017-11-29T07:41:01.997Z,36.50
2017-11-29T07:42:55.266Z,34.00
2017-11-29T07:43:55.179Z,34.80
2017-11-29T07:45:48.449Z,36.40
2017-11-29T07:46:48.353Z,34.30
2017-11-29T07:48:41.601Z,35.40
2017-11-29T07:49:41.528Z,35.80
2017-11-29T07:51:34.805Z,35.60
2017-11-29T07:52:34.704Z,34.60
2017-11-29T07:54:27.958Z,33.90
2017-11-29T07:55:27.880Z,35.40
2017-11-29T07:57:21.152Z,34.00
2017-11-29T07:58:21.060Z,34.90
2017-11-29T08:00:15.403Z,35.50
2017-11-29T08:01:15.309Z,35.40
2017-11-29T08:03:08.563Z,35.30
2017-11-29T08:04:08.486Z,35.00
2017-11-29T08:06:01.759Z,33.90
2017-11-29T08:07:01.666Z,34.30
2017-11-29T08:08:54.917Z,34.40
2017-11-29T08:09:54.843Z,32.30
2017-11-29T08:11:48.114Z,30.30
2017-11-29T08:12:48.021Z,30.80
2017-11-29T08:14:41.278Z,30.40
2017-11-29T08:15:41.200Z,29.70
2017-11-29T08:17:34.474Z,29.40
2017-11-29T08:18:34.380Z,28.80
2017-11-29T08:20:27.747Z,28.10
2017-11-29T08:21:27.560Z,27.60
2017-11-29T08:23:20.813Z,28.50
2017-11-29T08:24:20.737Z,26.90
2017-11-29T08:26:14.010Z,27.20
2017-11-29T08:27:13.922Z,26.40
2017-11-29T08:29:07.160Z,26.90
2017-11-29T08:30:07.089Z,27.20
2017-11-29T08:32:00.361Z,32.50
2017-11-29T08:33:00.270Z,27.50
2017-11-29T08:34:53.520Z,29.30
2017-11-29T08:35:53.449Z,27.10
2017-11-29T08:37:46.734Z,27.30
2017-11-29T08:38:46.629Z,27.80
2017-11-29T08:40:39.900Z,27.70
2017-11-29T08:41:39.807Z,26.20
2017-11-29T08:43:33.068Z,27.00
2017-11-29T08:44:32.987Z,26.80
2017-11-29T08:46:26.261Z,27.70
2017-11-29T08:47:26.170Z,27.70
2017-11-29T08:49:19.414Z,28.00
2017-11-29T08:50:19.339Z,29.80
2017-11-29T08:52:12.609Z,30.40
2017-11-29T08:53:12.525Z,29.40
2017-11-29T08:55:05.770Z,29.00
2017-11-29T08:56:05.703Z,28.60
2017-11-29T08:57:58.981Z,28.10
2017-11-29T08:58:58.877Z,28.00
2017-11-29T09:00:52.149Z,30.00
2017-11-29T09:01:52.059Z,29.80
2017-11-29T09:03:45.382Z,28.60
2017-11-29T09:04:45.307Z,28.50
2017-11-29T09:06:38.576Z,29.50
2017-11-29T09:07:38.488Z,30.00
2017-11-29T09:09:31.731Z,28.40
2017-11-29T09:10:31.657Z,29.00
2017-11-29T09:12:24.930Z,30.10
2017-11-29T09:13:24.835Z,33.70
2017-11-29T09:15:18.090Z,29.20
2017-11-29T09:16:18.018Z,29.20
2017-11-29T09:18:11.289Z,28.50
2017-11-29T09:19:11.198Z,28.40
2017-11-29T09:21:04.462Z,29.00
2017-11-29T09:22:04.381Z,28.30
2017-11-29T09:23:57.629Z,29.10
2017-11-29T09:24:57.557Z,30.70
2017-11-29T09:26:50.826Z,29.00
2017-11-29T09:27:50.737Z,28.70
2017-11-29T09:29:43.979Z,28.30
2017-11-29T09:30:43.907Z,27.60
2017-11-29T09:32:37.209Z,28.80
2017-11-29T09:33:37.089Z,27.60
2017-11-29T09:35:30.342Z,28.80
2017-11-29T09:36:30.269Z,28.70
2017-11-29T09:38:23.543Z,27.60
2017-11-29T09:39:23.451Z,29.00
2017-11-29T09:41:16.727Z,29.30
2017-11-29T09:42:16.630Z,29.50
2017-11-29T09:44:09.884Z,29.00
2017-11-29T09:45:09.810Z,29.80
2017-11-29T09:47:03.078Z,30.90
2017-11-29T09:48:02.991Z,29.40
2017-11-29T09:49:56.247Z,30.50
2017-11-29T09:50:56.170Z,31.80
2017-11-29T09:52:49.426Z,30.50
2017-11-29T09:53:49.331Z,30.30
2017-11-29T09:55:42.582Z,31.90
2017-11-29T09:56:42.500Z,30.70
2017-11-29T09:58:35.765Z,30.00
2017-11-29T09:59:35.677Z,29.00
2017-11-29T10:01:28.930Z,29.70
2017-11-29T10:02:28.839Z,29.20
2017-11-29T10:04:22.081Z,29.80
2017-11-29T10:05:22.009Z,29.30
2017-11-29T10:07:15.267Z,29.80
2017-11-29T10:08:15.178Z,29.70
2017-11-29T10:10:08.425Z,30.20
2017-11-29T10:11:08.359Z,29.10
2017-11-29T10:13:01.614Z,31.10
2017-11-29T10:14:01.521Z,32.70
2017-11-29T10:15:54.799Z,33.50
2017-11-29T10:16:54.721Z,32.40
2017-11-29T10:18:47.980Z,32.30
2017-11-29T10:19:47.889Z,32.60
2017-11-29T10:21:41.166Z,32.10
2017-11-29T10:22:41.057Z,32.10
2017-11-29T10:24:34.309Z,34.00
2017-11-29T10:25:34.235Z,33.40
2017-11-29T10:27:27.497Z,33.20
2017-11-29T10:28:27.405Z,33.60
2017-11-29T10:30:20.659Z,33.10
2017-11-29T10:31:20.594Z,34.40
2017-11-29T10:33:13.846Z,32.20
2017-11-29T10:34:13.754Z,34.00
2017-11-29T10:36:07.002Z,31.90
2017-11-29T10:37:06.985Z,31.70
2017-11-29T10:39:00.183Z,33.30
2017-11-29T10:40:00.094Z,32.80
2017-11-29T10:41:53.394Z,35.40
2017-11-29T10:42:53.298Z,34.40
2017-11-29T10:44:46.545Z,32.80
2017-11-29T10:45:46.472Z,32.10
2017-11-29T10:47:39.732Z,31.70
2017-11-29T10:48:39.643Z,33.10
2017-11-29T10:50:32.881Z,37.60
2017-11-29T10:51:32.809Z,37.30
2017-11-29T10:53:26.072Z,34.50
2017-11-29T10:54:25.976Z,34.20
2017-11-29T10:56:19.228Z,32.00
2017-11-29T10:57:19.163Z,32.10
2017-11-29T10:59:12.429Z,30.80
2017-11-29T11:00:12.336Z,30.70
2017-11-29T11:02:05.608Z,29.80
2017-11-29T11:03:05.520Z,29.30
2017-11-29T11:04:58.766Z,29.40
2017-11-29T11:05:58.687Z,30.10
2017-11-29T11:07:51.950Z,29.60
2017-11-29T11:08:51.857Z,30.50
2017-11-29T11:10:45.100Z,30.60
2017-11-29T11:11:45.029Z,30.70
2017-11-29T11:13:38.297Z,29.90
2017-11-29T11:14:38.199Z,30.70
2017-11-29T11:16:31.441Z,28.60
2017-11-29T11:17:31.367Z,29.00
2017-11-29T11:19:24.630Z,28.80
2017-11-29T11:20:24.540Z,28.50
2017-11-29T11:22:17.804Z,26.50
2017-11-29T11:23:17.715Z,25.80
2017-11-29T11:25:10.953Z,23.50
2017-11-29T11:26:10.881Z,23.50
2017-11-29T11:28:04.138Z,23.30
2017-11-29T11:29:04.070Z,23.40
2017-11-29T11:30:57.375Z,24.10
2017-11-29T11:31:57.308Z,22.70
2017-11-29T11:33:50.561Z,20.90
2017-11-29T11:34:50.469Z,21.40
2017-11-29T11:36:43.712Z,21.70
2017-11-29T11:37:43.641Z,22.90
2017-11-29T11:39:36.902Z,22.90
2017-11-29T11:40:36.811Z,22.80
2017-11-29T11:42:30.068Z,21.80
2017-11-29T11:43:29.977Z,22.40
2017-11-29T11:45:23.219Z,22.20
2017-11-29T11:46:23.146Z,21.80
2017-11-29T11:48:16.427Z,20.20
2017-11-29T11:49:16.341Z,19.90
2017-11-29T11:51:09.578Z,18.40
2017-11-29T11:52:09.509Z,18.20
2017-11-29T11:54:02.776Z,18.30
2017-11-29T11:55:02.687Z,19.00
2017-11-29T11:56:55.936Z,18.90
2017-11-29T11:57:55.857Z,19.50
2017-11-29T11:59:49.118Z,19.00
2017-11-29T12:00:49.028Z,19.90
2017-11-29T12:02:42.290Z,18.90
2017-11-29T12:03:42.196Z,18.30
2017-11-29T12:05:35.435Z,20.00
2017-11-29T12:06:35.364Z,19.70
2017-11-29T12:08:28.627Z,21.00
2017-11-29T12:09:28.540Z,20.80
2017-11-29T12:11:21.779Z,19.10
2017-11-29T12:12:21.710Z,16.50
2017-11-29T12:14:14.967Z,19.20
2017-11-29T12:15:14.876Z,19.70
2017-11-29T12:17:08.119Z,19.10
2017-11-29T12:18:08.051Z,19.80
2017-11-29T12:20:01.393Z,21.10
2017-11-29T12:21:01.319Z,20.00
2017-11-29T12:22:54.582Z,19.40
2017-11-29T12:23:54.497Z,19.50
2017-11-29T12:25:47.733Z,19.90
2017-11-29T12:26:47.659Z,20.20
2017-11-29T12:28:40.922Z,19.30
2017-11-29T12:29:40.830Z,19.10
2017-11-29T12:31:34.071Z,18.90
2017-11-29T12:32:33.999Z,19.90
2017-11-29T12:34:27.258Z,22.30
2017-11-29T12:35:27.167Z,19.70
2017-11-29T12:37:20.410Z,19.60
2017-11-29T12:38:20.336Z,19.70
2017-11-29T12:40:13.596Z,21.20
2017-11-29T12:41:13.506Z,21.00
2017-11-29T12:43:06.769Z,18.60
2017-11-29T12:44:06.675Z,18.00
2017-11-29T12:45:59.919Z,19.80
2017-11-29T12:46:59.849Z,18.10
2017-11-29T12:48:53.108Z,19.40
2017-11-29T12:49:53.014Z,18.80
2017-11-29T12:51:46.266Z,20.10
2017-11-29T12:52:46.193Z,20.40
2017-11-29T12:54:39.460Z,17.90
2017-11-29T12:55:39.369Z,20.00
2017-11-29T12:57:32.642Z,19.30
2017-11-29T12:58:32.536Z,18.90
2017-11-29T13:00:25.777Z,19.20
2017-11-29T13:01:25.706Z,19.20
2017-11-29T13:03:18.976Z,19.70
2017-11-29T13:04:18.884Z,19.00
2017-11-29T13:06:12.117Z,19.10
2017-11-29T13:07:12.044Z,18.80
2017-11-29T13:09:05.308Z,19.40
2017-11-29T13:10:05.218Z,18.90
2017-11-29T13:11:58.462Z,18.80
2017-11-29T13:12:58.388Z,18.00
2017-11-29T13:14:51.649Z,18.60
2017-11-29T13:15:51.558Z,19.30
2017-11-29T13:17:44.820Z,17.90
2017-11-29T13:18:44.727Z,18.20
2017-11-29T13:20:37.970Z,18.10
2017-11-29T13:21:37.903Z,18.20
2017-11-29T13:23:31.165Z,19.30
2017-11-29T13:24:31.069Z,18.40
2017-11-29T13:26:24.312Z,18.60
2017-11-29T13:27:24.246Z,18.20
2017-11-29T13:29:17.507Z,18.60
2017-11-29T13:30:17.413Z,18.20
2017-11-29T13:32:10.656Z,18.80
2017-11-29T13:33:10.581Z,18.80
2017-11-29T13:35:03.850Z,19.40
2017-11-29T13:36:03.759Z,19.50
2017-11-29T13:37:57.016Z,18.30
2017-11-29T13:38:56.926Z,19.00
2017-11-29T13:40:50.170Z,18.70
2017-11-29T13:41:50.096Z,18.90
2017-11-29T13:43:43.394Z,20.40
2017-11-29T13:44:43.305Z,19.90
2017-11-29T13:46:36.570Z,20.10
2017-11-29T13:47:36.472Z,20.20
2017-11-29T13:49:29.735Z,19.80
2017-11-29T13:50:29.644Z,19.70
2017-11-29T13:52:22.892Z,21.40
2017-11-29T13:53:22.815Z,21.90
2017-11-29T13:55:16.097Z,20.70
2017-11-29T13:56:16.003Z,20.90
2017-11-29T13:58:09.264Z,21.40
2017-11-29T13:59:09.174Z,21.00
2017-11-29T14:01:02.417Z,22.20
2017-11-29T14:02:02.342Z,21.60
2017-11-29T14:03:55.609Z,21.60
2017-11-29T14:04:55.513Z,21.40
2017-11-29T14:06:48.764Z,21.80
2017-11-29T14:07:48.694Z,20.90
2017-11-29T14:09:41.958Z,21.20
2017-11-29T14:10:41.869Z,21.30
2017-11-29T14:12:35.107Z,22.30
2017-11-29T14:13:35.036Z,20.40
2017-11-29T14:15:28.296Z,20.80
2017-11-29T14:16:28.204Z,20.50
2017-11-29T14:18:21.473Z,22.20
2017-11-29T14:19:21.373Z,22.40
2017-11-29T14:21:14.627Z,21.40
2017-11-29T14:22:14.555Z,21.60
2017-11-29T14:24:07.816Z,20.40
2017-11-29T14:25:07.742Z,20.80
2017-11-29T14:27:00.965Z,20.60
2017-11-29T14:28:00.891Z,20.50
2017-11-29T14:29:54.153Z,21.50
2017-11-29T14:30:54.062Z,21.90
2017-11-29T14:32:47.378Z,22.40
2017-11-29T14:33:47.305Z,20.90
2017-11-29T14:35:40.563Z,21.40
2017-11-29T14:36:40.472Z,21.40
2017-11-29T14:38:33.733Z,22.00
2017-11-29T14:39:33.637Z,21.60
2017-11-29T14:41:26.885Z,21.80
2017-11-29T14:42:26.824Z,22.40
2017-11-29T14:44:20.069Z,21.60
2017-11-29T14:45:19.978Z,22.00
2017-11-29T14:47:13.225Z,22.70
2017-11-29T14:48:13.149Z,21.30
2017-11-29T14:50:06.401Z,21.70
2017-11-29T14:51:06.316Z,21.50
2017-11-29T14:52:59.556Z,20.70
2017-11-29T14:53:59.482Z,20.50
2017-11-29T14:55:52.745Z,21.30
2017-11-29T14:56:52.647Z,20.90
2017-11-29T14:58:45.912Z,21.10
2017-11-29T14:59:45.820Z,20.30
2017-11-29T15:01:39.066Z,21.20
2017-11-29T15:02:38.993Z,21.10
2017-11-29T15:04:32.257Z,20.60
2017-11-29T15:05:32.163Z,20.60
2017-11-29T15:07:25.414Z,21.20
2017-11-29T15:08:25.349Z,21.30
2017-11-29T15:10:18.602Z,21.90
2017-11-29T15:11:18.514Z,21.40
2017-11-29T15:13:11.751Z,21.30
2017-11-29T15:14:11.677Z,22.50
2017-11-29T15:16:04.941Z,22.10
2017-11-29T15:17:04.846Z,22.10
2017-11-29T15:18:58.107Z,24.10
2017-11-29T15:19:58.015Z,23.40
2017-11-29T15:21:51.262Z,21.20
2017-11-29T15:22:51.190Z,21.50
2017-11-29T15:24:44.449Z,22.20
2017-11-29T15:25:44.356Z,21.90
2017-11-29T15:27:37.596Z,22.70
2017-11-29T15:28:37.523Z,21.70
2017-11-29T15:30:30.785Z,22.30
2017-11-29T15:31:30.697Z,23.20
2017-11-29T15:33:23.932Z,23.20
2017-11-29T15:34:23.859Z,22.80
2017-11-29T15:36:17.118Z,22.70
2017-11-29T15:37:17.033Z,22.50
2017-11-29T15:39:10.290Z,23.60
2017-11-29T15:40:10.196Z,23.00
2017-11-29T15:42:03.438Z,23.60
2017-11-29T15:43:03.362Z,23.70
2017-11-29T15:44:56.626Z,23.40
2017-11-29T15:45:56.533Z,23.10
2017-11-29T15:47:49.787Z,22.60
2017-11-29T15:48:49.702Z,22.60
2017-11-29T15:50:42.961Z,24.60
2017-11-29T15:51:42.869Z,23.90
2017-11-29T15:53:36.113Z,23.50
2017-11-29T15:54:36.034Z,23.90
2017-11-29T15:56:29.298Z,24.10
2017-11-29T15:57:29.202Z,23.40
2017-11-29T15:59:22.508Z,24.70
2017-11-29T16:00:22.374Z,23.50
2017-11-29T16:02:15.612Z,24.30
2017-11-29T16:03:15.540Z,24.00
2017-11-29T16:05:08.799Z,23.60
2017-11-29T16:06:08.709Z,23.50
2017-11-29T16:08:01.947Z,23.40
2017-11-29T16:09:01.871Z,23.30
2017-11-29T16:10:55.133Z,24.20
2017-11-29T16:11:55.040Z,24.50
2017-11-29T16:13:48.379Z,23.80
2017-11-29T16:14:48.302Z,23.00
2017-11-29T16:16:41.567Z,24.30
2017-11-29T16:17:41.476Z,23.90
2017-11-29T16:19:34.743Z,25.30
2017-11-29T16:20:34.645Z,24.40
2017-11-29T16:22:27.887Z,25.50
2017-11-29T16:23:27.822Z,24.90
2017-11-29T16:25:21.072Z,25.00
2017-11-29T16:26:20.980Z,24.30
2017-11-29T16:28:14.220Z,24.30
2017-11-29T16:29:14.149Z,24.50
2017-11-29T16:31:07.404Z,24.80
2017-11-29T16:32:07.312Z,26.20
2017-11-29T16:34:01.556Z,25.30
2017-11-29T16:35:01.481Z,25.50
2017-11-29T16:36:54.740Z,25.20
2017-11-29T16:37:54.648Z,26.10
2017-11-29T16:39:47.911Z,24.90
2017-11-29T16:40:47.817Z,24.50
2017-11-29T16:42:41.062Z,24.70
2017-11-29T16:43:40.982Z,24.30
2017-11-29T16:45:34.242Z,26.30
2017-11-29T16:46:34.150Z,26.80
2017-11-29T16:48:27.391Z,25.20
2017-11-29T16:49:27.317Z,25.50
2017-11-29T16:51:20.577Z,25.60
2017-11-29T16:52:20.483Z,25.90
2017-11-29T16:54:13.726Z,24.90
2017-11-29T16:55:13.649Z,25.50
2017-11-29T16:57:06.914Z,26.50
2017-11-29T16:58:06.819Z,26.90
2017-11-29T17:00:00.095Z,26.70
2017-11-29T17:00:59.996Z,25.20
2017-11-29T17:02:55.220Z,25.70
2017-11-29T17:03:55.075Z,25.90
2017-11-29T17:05:48.404Z,26.70
2017-11-29T17:06:48.307Z,30.10
2017-11-29T17:08:41.557Z,29.40
2017-11-29T17:09:41.480Z,29.10
2017-11-29T17:11:34.751Z,27.60
2017-11-29T17:12:34.658Z,25.60
2017-11-29T17:14:27.929Z,26.60
2017-11-29T17:15:27.836Z,26.70
2017-11-29T17:17:21.121Z,26.40
2017-11-29T17:18:21.050Z,26.60
2017-11-29T17:20:14.417Z,27.10
2017-11-29T17:21:14.310Z,27.30
2017-11-29T17:23:07.555Z,27.50
2017-11-29T17:24:07.479Z,27.00
2017-11-29T17:26:00.758Z,26.20
2017-11-29T17:27:00.666Z,25.90
2017-11-29T17:28:53.970Z,27.10
2017-11-29T17:29:53.873Z,26.40
2017-11-29T17:31:47.142Z,26.10
2017-11-29T17:32:47.050Z,26.70
2017-11-29T17:34:40.417Z,25.00
2017-11-29T17:35:40.300Z,25.30
2017-11-29T17:37:33.567Z,26.30
2017-11-29T17:38:33.476Z,25.60
2017-11-29T17:40:26.745Z,25.30
2017-11-29T17:41:26.652Z,23.90
2017-11-29T17:43:19.922Z,24.00
2017-11-29T17:44:19.848Z,25.40
2017-11-29T17:46:13.117Z,24.70
2017-11-29T17:47:13.029Z,23.80
2017-11-29T17:49:06.268Z,24.00
2017-11-29T17:50:06.211Z,24.40
2017-11-29T17:51:59.464Z,23.10
2017-11-29T17:52:59.374Z,24.60
2017-11-29T17:54:52.641Z,23.40
2017-11-29T17:55:52.550Z,25.50
2017-11-29T17:57:45.801Z,25.30
2017-11-29T17:58:45.746Z,25.10
2017-11-29T18:00:39.000Z,25.90
2017-11-29T18:01:38.904Z,26.80
2017-11-29T18:03:32.200Z,26.00
2017-11-29T18:04:32.122Z,26.30
2017-11-29T18:06:25.362Z,26.30
2017-11-29T18:07:25.270Z,26.20
2017-11-29T18:09:18.520Z,25.40
2017-11-29T18:10:18.446Z,26.00
2017-11-29T18:12:11.746Z,26.70
2017-11-29T18:13:11.629Z,27.30
2017-11-29T18:15:04.896Z,26.80
2017-11-29T18:16:04.804Z,28.30
2017-11-29T18:17:58.052Z,28.50
2017-11-29T18:18:57.982Z,28.50
2017-11-29T18:20:51.248Z,28.20
2017-11-29T18:21:51.157Z,28.40
2017-11-29T18:23:44.406Z,29.40
2017-11-29T18:24:44.332Z,29.10
2017-11-29T18:26:37.628Z,27.90
2017-11-29T18:27:37.519Z,28.50
2017-11-29T18:29:30.776Z,29.40
2017-11-29T18:30:30.695Z,28.50
2017-11-29T18:32:23.954Z,28.80
2017-11-29T18:33:23.863Z,28.90
2017-11-29T18:35:17.133Z,28.90